Time,TemperatureF,DewpointF,PressureIn,WindDirection,WindDirectionDegrees,WindSpeedMPH,WindSpeedGustMPH,Humidity,HourlyPrecipIn,Conditions,Clouds,dailyrainin,SoftwareType,DateUTC
2013-09-17 00:24:00,80.0,78.0,29.94,North,11,3.0,12.0,93,0.00,,,0.72,,2013-09-17 04:24:00,
2013-09-17 00:54:00,80.0,77.0,29.93,ENE,63,5.0,11.0,92,0.00,,,0.72,,2013-09-17 04:54:00,
2013-09-17 01:23:00,80.0,77.0,29.93,North,356,4.0,10.0,91,0.00,,,0.72,,2013-09-17 05:23:00,
2013-09-17 01:52:00,80.0,77.0,29.92,NNE,17,6.0,16.0,91,0.00,,,0.72,,2013-09-17 05:52:00,
2013-09-17 02:12:00,80.0,77.0,29.91,NNE,23,2.0,8.0,91,0.00,,,0.72,,2013-09-17 06:12:00,
2013-09-17 02:22:00,81.0,78.0,29.92,East,92,6.0,15.0,92,0.00,,,0.72,,2013-09-17 06:22:00,
2013-09-17 02:52:00,80.0,77.0,29.91,ENE,65,13.0,21.0,90,0.00,,,0.72,,2013-09-17 06:52:00,
2013-09-17 03:23:00,80.0,76.0,29.91,ENE,63,14.0,19.0,89,0.00,,,0.72,,2013-09-17 07:23:00,
2013-09-17 03:52:00,80.0,77.0,29.90,ENE,72,8.0,16.0,90,0.00,,,0.72,,2013-09-17 07:52:00,
2013-09-17 04:22:00,80.0,77.0,29.89,ENE,72,10.0,16.0,90,0.00,,,0.72,,2013-09-17 08:22:00,
2013-09-17 04:52:00,80.0,76.0,29.89,East,92,9.0,14.0,89,0.00,,,0.72,,2013-09-17 08:52:00,
2013-09-17 05:22:00,81.0,78.0,29.89,ENE,67,3.0,8.0,90,0.00,,,0.72,,2013-09-17 09:22:00,
2013-09-17 05:53:00,81.0,78.0,29.89,ENE,65,3.0,8.0,91,0.00,,,0.72,,2013-09-17 09:53:00,
2013-09-17 06:23:00,80.0,77.0,29.90,ENE,74,3.0,7.0,90,0.01,,,0.73,,2013-09-17 10:23:00,
2013-09-17 06:42:00,80.0,77.0,29.90,NE,47,1.0,7.0,90,0.01,,,0.73,,2013-09-17 10:42:00,
2013-09-17 06:53:00,80.0,77.0,29.91,ENE,73,6.0,11.0,90,0.01,,,0.73,,2013-09-17 10:53:00,
2013-09-17 07:22:00,81.0,77.0,29.91,East,92,5.0,10.0,89,0.00,,,0.73,,2013-09-17 11:22:00,
2013-09-17 07:52:00,81.0,78.0,29.92,East,92,8.0,12.0,90,0.00,,,0.73,,2013-09-17 11:52:00,
2013-09-17 08:12:00,81.0,78.0,29.93,East,92,7.0,10.0,90,0.00,,,0.73,,2013-09-17 12:12:00,
2013-09-17 08:22:00,81.0,78.0,29.93,ENE,68,4.0,9.0,90,0.00,,,0.73,,2013-09-17 12:22:00,
2013-09-17 08:52:00,81.0,77.0,29.95,ENE,72,7.0,15.0,89,0.02,,,0.75,,2013-09-17 12:52:00,
2013-09-17 09:22:00,79.0,76.0,29.95,ENE,72,0.0,5.0,90,0.08,,,0.81,,2013-09-17 13:22:00,
2013-09-17 09:52:00,79.0,76.0,29.95,SSE,167,0.0,5.0,92,0.06,,,0.81,,2013-09-17 13:52:00,
2013-09-17 10:22:00,80.0,78.0,29.97,SSE,166,0.0,1.0,93,0.00,,,0.78,,2013-09-17 14:22:00,
2013-09-17 10:52:00,78.0,75.0,29.97,West,278,0.0,3.0,92,0.00,,,0.78,,2013-09-17 14:52:00,
2013-09-17 11:22:00,78.0,76.0,29.98,West,280,0.0,1.0,93,0.01,,,0.68,,2013-09-17 15:22:00,
2013-09-17 11:53:00,78.0,76.0,29.99,WNW,287,1.0,5.0,94,0.03,,,0.70,,2013-09-17 15:53:00,
2013-09-17 12:23:00,78.0,76.0,29.99,NW,324,5.0,6.0,94,0.03,,,0.60,,2013-09-17 16:23:00,
2013-09-17 12:54:00,78.0,76.0,29.97,NW,317,0.0,5.0,95,0.01,,,0.60,,2013-09-17 16:54:00,
2013-09-17 13:24:00,79.0,77.0,29.95,NW,317,0.0,2.0,95,0.00,,,0.31,,2013-09-17 17:24:00,
2013-09-17 13:53:00,79.0,77.0,29.93,North,351,8.0,11.0,94,0.00,,,0.31,,2013-09-17 17:53:00,
2013-09-17 14:22:00,79.0,77.0,29.91,NNW,342,8.0,13.0,93,0.00,,,0.15,,2013-09-17 18:22:00,
2013-09-17 14:52:00,79.0,77.0,29.91,NNW,341,7.0,12.0,93,0.00,,,0.15,,2013-09-17 18:52:00,
2013-09-17 15:22:00,80.0,77.0,29.90,NNW,328,8.0,16.0,91,0.00,,,0.13,,2013-09-17 19:22:00,
2013-09-17 15:52:00,81.0,78.0,29.89,NNW,343,9.0,15.0,90,0.00,,,0.13,,2013-09-17 19:52:00,
2013-09-17 16:22:00,81.0,77.0,29.89,NNW,346,8.0,13.0,89,0.00,,,0.13,,2013-09-17 20:22:00,
2013-09-17 16:52:00,81.0,77.0,29.88,NNW,346,9.0,14.0,89,0.00,,,0.13,,2013-09-17 20:52:00,
2013-09-17 17:22:00,82.0,78.0,29.89,North,354,5.0,12.0,89,0.00,,,0.13,,2013-09-17 21:22:00,
2013-09-17 17:54:00,82.0,78.0,29.88,North,360,6.0,10.0,87,0.00,,,0.13,,2013-09-17 21:54:00,
2013-09-17 18:24:00,82.0,78.0,29.88,North,1,0.0,5.0,87,0.00,,,0.13,,2013-09-17 22:24:00,
2013-09-17 18:53:00,82.0,78.0,29.88,North,356,4.0,10.0,87,0.00,,,0.13,,2013-09-17 22:53:00,
2013-09-17 19:22:00,82.0,78.0,29.89,NNE,12,10.0,13.0,87,0.00,,,0.13,,2013-09-17 23:22:00,
2013-09-17 19:52:00,81.0,77.0,29.90,NNE,27,10.0,18.0,88,0.00,,,0.13,,2013-09-17 23:52:00,
2013-09-17 20:22:00,81.0,78.0,29.90,North,9,5.0,16.0,90,0.00,,,0.13,,2013-09-18 00:22:00,
2013-09-17 20:52:00,81.0,77.0,29.90,ENE,68,4.0,10.0,89,0.00,,,0.13,,2013-09-18 00:52:00,
2013-09-17 21:22:00,81.0,78.0,29.91,NNE,17,3.0,8.0,90,0.00,,,0.13,,2013-09-18 01:22:00,
2013-09-17 21:53:00,81.0,78.0,29.92,North,5,3.0,9.0,90,0.00,,,0.13,,2013-09-18 01:53:00,
2013-09-17 22:22:00,81.0,77.0,29.92,ENE,74,5.0,10.0,89,0.00,,,0.13,,2013-09-18 02:22:00,
2013-09-17 22:43:00,81.0,77.0,29.93,NNE,32,4.0,9.0,89,0.00,,,0.13,,2013-09-18 02:43:00,
2013-09-17 22:52:00,81.0,77.0,29.93,ENE,71,5.0,10.0,89,0.00,,,0.13,,2013-09-18 02:52:00,
2013-09-17 23:23:00,81.0,78.0,29.93,ENE,73,6.0,11.0,90,0.00,,,0.13,,2013-09-18 03:23:00,
2013-09-17 23:55:00,81.0,77.0,29.92,East,92,5.0,11.0,89,0.00,,,0.13,,2013-09-18 03:55:00,